Time;durP1;ratioP1;P1;durP2;ratioP2;P2;SDS_P1;SDS_P2;PMS_P1;PMS_P2;Temp;Humidity;BMP_temperature;BMP_pressure;BME280_temperature;BME280_humidity;BME280_pressure;Samples;Min_cycle;Max_cycle;Signal;HPM_P1;HPM_P2
2022/03/11 00:02:21;;;;;;;620.40;157.83;;;;;;;;;;4882384;29;20194;-80
2022/03/11 00:04:47;;;;;;;582.63;143.13;;;;;;;;;;4881204;29;20280;-81
2022/03/11 00:07:14;;;;;;;649.13;170.70;;;;;;;;;;4881320;29;20220;-81
2022/03/11 00:09:40;;;;;;;602.67;153.87;;;;;;;;;;4881378;29;20189;-80
2022/03/11 00:12:07;;;;;;;683.67;188.40;;;-5.60;99.90;;;;;;4881436;29;20182;-84
2022/03/11 00:14:33;;;;;;;635.07;171.10;;;;;;;;;;4882667;29;20663;-80
2022/03/11 00:17:00;;;;;;;285.10;71.57;;;;;;;;;;4882226;29;20658;-80
2022/03/11 00:19:26;;;;;;;195.57;48.07;;;;;;;;;;4880995;29;20202;-80
2022/03/11 00:21:52;;;;;;;147.50;39.07;;;;;;;;;;4882065;29;20197;-80
2022/03/11 00:24:18;;;;;;;167.73;47.90;;;;;;;;;;4880899;29;20189;-80
2022/03/11 00:26:44;;;;;;;267.33;67.50;;;;;;;;;;4881830;29;20225;-80
2022/03/11 00:29:10;;;;;;;125.80;34.60;;;;;;;;;;4880734;29;20200;-81
2022/03/11 00:31:36;;;;;;;172.20;48.70;;;;;;;;;;4880817;29;20199;-82
2022/03/11 00:34:02;;;;;;;168.93;39.87;;;-5.80;99.90;;;;;;4879343;29;20546;-81
2022/03/11 00:36:28;;;;;;;126.33;35.97;;;;;;;;;;4880414;29;20253;-81
2022/03/11 00:38:54;;;;;;;103.40;31.30;;;;;;;;;;4882075;29;20193;-82
2022/03/11 00:41:20;;;;;;;175.20;47.60;;;;;;;;;;4881845;29;20189;-81
2022/03/11 00:43:46;;;;;;;120.20;37.20;;;;;;;;;;4881659;29;20582;-82
2022/03/11 00:46:12;;;;;;;173.90;50.00;;;;;;;;;;4880354;29;20212;-81
2022/03/11 00:48:38;;;;;;;160.97;45.70;;;;;;;;;;4881760;29;20203;-81
2022/03/11 00:51:04;;;;;;;139.77;41.43;;;;;;;;;;4882041;29;20187;-81
2022/03/11 00:53:30;;;;;;;104.83;30.87;;;;;;;;;;4880132;29;20788;-81
2022/03/11 00:55:56;;;;;;;102.63;31.13;;;;;;;;;;4881866;29;20195;-81
2022/03/11 00:58:22;;;;;;;114.07;36.43;;;;;;;;;;4881375;29;20214;-80
2022/03/11 01:00:48;;;;;;;109.40;33.13;;;;;;;;;;4880221;29;20649;-81
2022/03/11 01:03:14;;;;;;;101.70;31.60;;;;;;;;;;4879960;29;20219;-81
2022/03/11 01:05:40;;;;;;;112.10;34.17;;;;;;;;;;4880642;29;20253;-80
2022/03/11 01:08:06;;;;;;;96.03;29.13;;;;;;;;;;4886513;29;20708;-81
2022/03/11 01:10:32;;;;;;;77.77;26.40;;;;;;;;;;4901873;29;20298;-81
2022/03/11 01:12:58;;;;;;;81.70;28.10;;;;;;;;;;4892682;29;20194;-82
2022/03/11 01:15:24;;;;;;;82.87;26.27;;;;;;;;;;4880070;29;20668;-81
2022/03/11 01:17:50;;;;;;;64.57;22.33;;;;;;;;;;4879929;29;20192;-81
2022/03/11 01:20:16;;;;;;;71.27;23.27;;;;;;;;;;4879860;29;20249;-81
2022/03/11 01:22:43;;;;;;;66.00;23.77;;;;;;;;;;4881194;29;20180;-80
2022/03/11 01:25:09;;;;;;;59.70;21.60;;;-6.50;99.90;;;;;;4879644;29;20189;-81
2022/03/11 01:27:36;;;;;;;53.50;19.70;;;;;;;;;;4879520;29;20650;-81
2022/03/11 01:30:05;;;;;;;59.90;19.97;;;-6.20;99.90;;;;;;4864386;29;20200;-81
2022/03/11 01:32:31;;;;;;;50.20;20.13;;;;;;;;;;4879566;29;20654;-80
2022/03/11 01:34:57;;;;;;;44.10;19.17;;;;;;;;;;4881019;29;20193;-82
2022/03/11 01:37:23;;;;;;;54.87;19.67;;;;;;;;;;4879571;29;20194;-82
2022/03/11 01:39:49;;;;;;;66.70;19.47;;;;;;;;;;4879527;29;20550;-81
2022/03/11 01:42:15;;;;;;;59.40;20.47;;;;;;;;;;4880901;29;20185;-81
2022/03/11 01:44:41;;;;;;;55.37;20.10;;;;;;;;;;4879014;29;20236;-80
2022/03/11 01:47:07;;;;;;;47.83;18.90;;;;;;;;;;4880549;29;20276;-80
2022/03/11 01:49:34;;;;;;;46.67;17.60;;;;;;;;;;4880541;29;20193;-80
2022/03/11 01:52:00;;;;;;;52.43;18.27;;;;;;;;;;4879438;29;20555;-81
2022/03/11 01:54:26;;;;;;;46.80;16.17;;;;;;;;;;4880265;29;20763;-81
2022/03/11 01:56:52;;;;;;;55.53;14.77;;;;;;;;;;4880563;29;20275;-80
2022/03/11 01:59:19;;;;;;;40.83;16.47;;;;;;;;;;4880458;29;20195;-86
2022/03/11 02:01:45;;;;;;;41.33;15.37;;;;;;;;;;4879344;29;20188;-80
2022/03/11 02:04:11;;;;;;;48.13;15.40;;;;;;;;;;4879217;29;20530;-80
2022/03/11 02:06:37;;;;;;;30.63;12.80;;;;;;;;;;4880191;29;20229;-80
2022/03/11 02:09:03;;;;;;;45.37;14.87;;;-6.40;99.90;;;;;;4880581;29;20260;-80
2022/03/11 02:11:29;;;;;;;39.43;14.00;;;;;;;;;;4880019;29;20661;-80
2022/03/11 02:13:57;;;;;;;32.40;13.33;;;-6.40;99.90;;;;;;4878988;29;20199;-80
2022/03/11 02:16:25;;;;;;;43.67;14.10;;;-6.40;99.90;;;;;;4878821;29;20199;-80
2022/03/11 02:18:52;;;;;;;31.50;12.83;;;;;;;;;;4878895;29;20703;-81
2022/03/11 02:21:20;;;;;;;50.40;16.87;;;-6.40;99.90;;;;;;4880123;29;20636;-81
2022/03/11 02:23:51;;;;;;;41.37;15.73;;;-6.40;99.90;;;;;;4879855;29;20179;-80
2022/03/11 02:26:19;;;;;;;45.60;17.57;;;-6.40;99.90;;;;;;4879749;29;20301;-80
2022/03/11 02:28:46;;;;;;;48.67;18.03;;;-6.50;99.90;;;;;;4878776;29;20211;-80
2022/03/11 02:31:12;;;;;;;40.60;16.03;;;;;;;;;;4878825;29;20223;-80
2022/03/11 02:33:38;;;;;;;32.57;13.03;;;;;;;;;;4863232;29;20196;-80
2022/03/11 02:36:04;;;;;;;32.67;11.77;;;-6.60;99.90;;;;;;4878693;29;20192;-80
2022/03/11 02:38:31;;;;;;;35.57;11.17;;;;;;;;;;4879643;29;20227;-80
2022/03/11 02:40:57;;;;;;;25.60;10.33;;;;;;;;;;4879689;29;20195;-80
2022/03/11 02:43:24;;;;;;;26.30;10.03;;;-6.60;99.90;;;;;;4879968;29;20232;-80
2022/03/11 02:45:50;;;;;;;27.07;10.57;;;;;;;;;;4879854;29;20218;-80
2022/03/11 02:48:16;;;;;;;24.43;10.67;;;;;;;;;;4878430;29;20215;-80
2022/03/11 02:50:42;;;;;;;28.93;12.43;;;;;;;;;;4878340;29;20728;-80
2022/03/11 02:53:08;;;;;;;28.73;9.47;;;;;;;;;;4878185;29;20324;-81
2022/03/11 02:55:34;;;;;;;24.53;10.70;;;;;;;;;;4879480;29;20204;-80
2022/03/11 02:58:01;;;;;;;28.47;13.27;;;;;;;;;;4878998;29;20279;-80
2022/03/11 03:00:27;;;;;;;26.30;10.50;;;;;;;;;;4879532;29;20265;-82
2022/03/11 03:02:53;;;;;;;21.67;9.30;;;;;;;;;;4863145;29;20291;-80
2022/03/11 03:05:19;;;;;;;25.90;9.80;;;;;;;;;;4878116;29;20237;-80
2022/03/11 03:07:45;;;;;;;21.20;8.03;;;;;;;;;;4879170;29;20216;-80
2022/03/11 03:10:11;;;;;;;24.23;9.50;;;;;;;;;;4878307;29;20197;-80
2022/03/11 03:12:38;;;;;;;18.30;8.13;;;;;;;;;;4879131;29;20230;-81
2022/03/11 03:15:04;;;;;;;17.63;8.87;;;-6.80;99.90;;;;;;4878196;29;20255;-80
2022/03/11 03:17:30;;;;;;;18.13;8.20;;;;;;;;;;4878334;29;20195;-80
2022/03/11 03:19:56;;;;;;;19.67;8.73;;;;;;;;;;4879785;29;20185;-80
2022/03/11 03:22:22;;;;;;;19.67;9.43;;;;;;;;;;4878154;29;20639;-80
2022/03/11 03:24:49;;;;;;;22.00;8.80;;;;;;;;;;4879133;29;20195;-81
2022/03/11 03:27:15;;;;;;;15.37;8.67;;;;;;;;;;4879387;29;20273;-80
2022/03/11 03:29:41;;;;;;;18.93;7.67;;;;;;;;;;4877750;29;20202;-80
2022/03/11 03:32:07;;;;;;;20.90;7.93;;;-6.80;99.90;;;;;;4879670;29;20187;-80
2022/03/11 03:34:36;;;;;;;16.00;7.47;;;-6.70;99.90;;;;;;4878056;29;20297;-80
2022/03/11 03:37:07;;;;;;;17.73;7.03;;;-6.80;99.90;;;;;;4879749;29;20182;-81
2022/03/11 03:39:33;;;;;;;18.43;6.93;;;;;;;;;;4878089;29;20534;-80
2022/03/11 03:41:59;;;;;;;14.07;6.17;;;;;;;;;;4879353;29;20218;-80
2022/03/11 03:44:26;;;;;;;16.73;8.37;;;;;;;;;;4878044;29;20225;-80
2022/03/11 03:46:52;;;;;;;15.20;6.30;;;;;;;;;;4879173;29;20698;-80
2022/03/11 03:49:18;;;;;;;17.23;7.40;;;;;;;;;;4879012;29;20644;-80
2022/03/11 03:51:44;;;;;;;15.60;7.20;;;;;;;;;;4879152;29;20195;-81
2022/03/11 03:54:10;;;;;;;21.07;7.73;;;;;;;;;;4877705;29;20601;-80
2022/03/11 03:56:41;;;;;;;13.93;7.60;;;-6.90;99.90;;;;;;4878870;29;20633;-81
2022/03/11 03:59:09;;;;;;;16.30;6.83;;;-6.90;99.90;;;;;;4878075;29;20196;-81
2022/03/11 04:01:37;;;;;;;15.17;6.60;;;-6.90;99.90;;;;;;4878889;29;20260;-80
2022/03/11 04:04:03;;;;;;;17.97;7.27;;;-6.90;99.90;;;;;;4877891;29;20190;-80
2022/03/11 04:06:30;;;;;;;15.50;7.57;;;-6.70;99.90;;;;;;4878732;29;20238;-80
2022/03/11 04:08:57;;;;;;;18.47;7.67;;;;;;;;;;4880437;29;20706;-81
2022/03/11 04:11:24;;;;;;;24.10;11.43;;;-6.90;99.90;;;;;;4882606;29;20632;-81
2022/03/11 04:13:50;;;;;;;33.53;10.97;;;;;;;;;;4881267;29;20629;-80
2022/03/11 04:16:16;;;;;;;26.83;12.13;;;;;;;;;;4882308;29;20210;-79
2022/03/11 04:18:42;;;;;;;64.57;23.40;;;-4.20;99.90;;;;;;4882262;29;20189;-81
2022/03/11 04:21:09;;;;;;;135.17;45.87;;;;;;;;;;4881979;29;20198;-81
2022/03/11 04:23:35;;;;;;;116.87;42.13;;;;;;;;;;4882027;29;20203;-81
2022/03/11 04:26:01;;;;;;;90.20;32.07;;;;;;;;;;4882141;29;20349;-82
2022/03/11 04:28:27;;;;;;;60.73;20.50;;;;;;;;;;4882096;29;20194;-80
2022/03/11 04:30:53;;;;;;;31.37;12.57;;;;;;;;;;4882395;29;20190;-80
2022/03/11 04:33:20;;;;;;;43.77;15.03;;;;;;;;;;4881882;29;20266;-81
2022/03/11 04:35:46;;;;;;;37.50;12.20;;;;;;;;;;4881580;29;20185;-80
2022/03/11 04:38:12;;;;;;;42.30;15.87;;;;;;;;;;4880851;29;20211;-81
2022/03/11 04:40:38;;;;;;;42.80;15.23;;;;;;;;;;4880238;29;20280;-82
2022/03/11 04:43:04;;;;;;;34.10;13.67;;;;;;;;;;4878014;29;20206;-82
2022/03/11 04:45:31;;;;;;;23.83;11.47;;;;;;;;;;4883641;29;20672;-82
2022/03/11 04:47:57;;;;;;;33.67;11.73;;;;;;;;;;4865561;29;20218;-82
2022/03/11 04:50:23;;;;;;;20.83;9.23;;;;;;;;;;4881070;29;20190;-81
2022/03/11 04:52:49;;;;;;;38.27;14.53;;;;;;;;;;4877147;29;20208;-81
2022/03/11 04:55:16;;;;;;;45.17;16.63;;;;;;;;;;4887099;29;20242;-81
2022/03/11 04:57:42;;;;;;;62.70;21.00;;;;;;;;;;4868270;29;20192;-80
2022/03/11 05:00:09;;;;;;;68.30;26.03;;;-6.80;99.90;;;;;;4878403;29;20670;-82
2022/03/11 05:02:35;;;;;;;148.23;45.47;;;;;;;;;;4861449;29;20199;-84
2022/03/11 05:05:07;;;;;;;256.73;59.50;;;-7.10;99.90;;;;;;4873221;29;20192;-80
2022/03/11 05:07:34;;;;;;;139.73;36.93;;;-6.90;99.90;;;;;;4884456;29;20261;-84
2022/03/11 05:10:00;;;;;;;76.53;22.40;;;;;;;;;;4899506;29;20211;-82
2022/03/11 05:12:26;;;;;;;32.40;12.23;;;;;;;;;;4895719;29;20205;-83
2022/03/11 05:14:52;;;;;;;44.33;13.43;;;;;;;;;;4890326;29;20756;-81
2022/03/11 05:17:19;;;;;;;63.40;19.27;;;-6.90;99.90;;;;;;4871876;29;20206;-81
2022/03/11 05:19:45;;;;;;;56.47;16.57;;;;;;;;;;4883091;29;20192;-81
2022/03/11 05:22:11;;;;;;;36.93;12.43;;;;;;;;;;4876422;29;20200;-81
2022/03/11 05:24:38;;;;;;;58.27;17.90;;;-6.80;99.90;;;;;;4862526;29;20215;-80
2022/03/11 05:27:04;;;;;;;96.07;31.20;;;-6.90;99.90;;;;;;4869875;29;20320;-81
2022/03/11 05:29:31;;;;;;;90.37;28.03;;;;;;;;;;4886536;29;20190;-83
2022/03/11 05:31:58;;;;;;;129.40;32.60;;;;;;;;;;4883634;29;20193;-80
2022/03/11 05:34:23;;;;;;;169.23;40.93;;;;;;;;;;4887869;29;20195;-83
2022/03/11 05:36:50;;;;;;;137.77;35.03;;;;;;;;;;4868265;29;20571;-82
2022/03/11 05:39:16;;;;;;;127.90;29.87;;;;;;;;;;4856453;29;20677;-87
2022/03/11 05:41:43;;;;;;;98.93;26.67;;;-6.30;99.90;;;;;;4873875;29;20205;-82
2022/03/11 05:44:09;;;;;;;75.40;24.80;;;;;;;;;;4869978;29;20188;-81
2022/03/11 05:46:35;;;;;;;62.30;19.47;;;;;;;;;;4885092;29;20225;-82
2022/03/11 05:49:01;;;;;;;172.17;45.27;;;;;;;;;;4863552;29;20204;-86
2022/03/11 05:51:27;;;;;;;184.23;46.03;;;-5.80;99.90;;;;;;4860534;29;20254;-82
2022/03/11 05:53:53;;;;;;;96.00;24.90;;;;;;;;;;4870882;29;20243;-81
2022/03/11 05:56:20;;;;;;;49.07;16.77;;;;;;;;;;4871462;29;20265;-80
2022/03/11 05:58:46;;;;;;;32.83;11.60;;;;;;;;;;4878708;29;20662;-87
2022/03/11 06:01:12;;;;;;;22.10;10.47;;;-5.80;99.90;;;;;;4882365;29;20212;-81
2022/03/11 06:03:38;;;;;;;18.77;7.33;;;;;;;;;;4880659;29;20220;-81
2022/03/11 06:06:04;;;;;;;28.17;10.33;;;;;;;;;;4885910;29;20254;-89
2022/03/11 06:08:30;;;;;;;41.43;14.40;;;;;;;;;;4872123;29;20186;-79
2022/03/11 06:10:56;;;;;;;41.53;13.77;;;;;;;;;;4879985;29;20244;-79
2022/03/11 06:13:22;;;;;;;96.80;31.13;;;;;;;;;;4879795;29;20642;-82
2022/03/11 06:15:48;;;;;;;134.53;40.37;;;;;;;;;;4879874;29;20196;-81
2022/03/11 06:18:17;;;;;;;83.37;25.87;;;;;;;;;;4879550;29;20188;-83
2022/03/11 06:20:44;;;;;;;44.80;15.90;;;;;;;;;;4861950;29;20214;-82
2022/03/11 06:23:10;;;;;;;99.03;28.77;;;;;;;;;;4867802;29;20193;-82
2022/03/11 06:25:36;;;;;;;63.90;20.50;;;;;;;;;;4860596;29;20222;-81
2022/03/11 06:28:02;;;;;;;54.63;17.80;;;;;;;;;;4861610;29;20185;-80
2022/03/11 06:30:28;;;;;;;51.07;18.00;;;;;;;;;;4860540;29;20224;-82
2022/03/11 06:32:54;;;;;;;33.03;12.47;;;;;;;;;;4873701;29;20190;-82
2022/03/11 06:35:20;;;;;;;61.80;19.07;;;;;;;;;;4860281;29;20194;-82
2022/03/11 06:37:48;;;;;;;38.67;13.83;;;-4.70;99.90;;;;;;4870365;29;20643;-82
2022/03/11 06:40:14;;;;;;;30.80;11.87;;;;;;;;;;4859753;29;20197;-82
2022/03/11 06:42:41;;;;;;;28.37;11.57;;;-4.60;99.90;;;;;;4878418;29;20279;-82
2022/03/11 06:45:08;;;;;;;18.37;8.30;;;-4.50;99.90;;;;;;4877144;29;20194;-84
2022/03/11 06:47:34;;;;;;;30.97;11.80;;;;;;;;;;4859947;29;20242;-82
2022/03/11 06:50:01;;;;;;;26.47;10.47;;;-4.40;99.90;;;;;;4844296;29;20191;-81
2022/03/11 06:52:27;;;;;;;26.03;8.47;;;;;;;;;;4859423;29;20241;-80
2022/03/11 06:54:54;;;;;;;24.27;7.90;;;;;;;;;;4859124;29;20597;-83
2022/03/11 06:57:20;;;;;;;21.33;7.27;;;;;;;;;;4859474;29;20193;-82
2022/03/11 06:59:47;;;;;;;16.97;6.30;;;;;;;;;;4860762;29;20210;-81
2022/03/11 07:02:13;;;;;;;34.10;9.73;;;;;;;;;;4859471;29;20250;-81
2022/03/11 07:04:39;;;;;;;16.87;6.93;;;;;;;;;;4844097;29;20198;-81
2022/03/11 07:07:05;;;;;;;14.70;5.90;;;;;;;;;;4859775;29;20229;-82
2022/03/11 07:09:31;;;;;;;16.27;6.60;;;;;;;;;;4861281;29;20191;-81
2022/03/11 07:12:01;;;;;;;25.00;9.37;;;;;;;;;;4845614;29;20671;-81
2022/03/11 07:14:36;;;;;;;20.03;5.43;;;-3.90;92.70;;;;;;4860158;29;20190;-82
2022/03/11 07:17:06;;;;;;;26.77;9.67;;;-3.60;99.90;;;;;;4862259;29;20635;-81
2022/03/11 07:19:33;;;;;;;26.17;9.27;;;;;;;;;;4861472;29;20210;-81
2022/03/11 07:22:02;;;;;;;22.70;8.37;;;-3.70;91.80;;;;;;4861547;29;20191;-81
2022/03/11 07:24:28;;;;;;;20.63;7.53;;;;;;;;;;4870277;29;20246;-81
2022/03/11 07:26:55;;;;;;;18.47;6.77;;;;;;;;;;4872637;29;20222;-82
2022/03/11 07:29:21;;;;;;;28.37;9.93;;;;;;;;;;4872128;29;20260;-82
2022/03/11 07:31:47;;;;;;;20.97;9.03;;;;;;;;;;4856600;29;20269;-82
2022/03/11 07:34:13;;;;;;;19.17;7.83;;;;;;;;;;4870534;29;20188;-81
2022/03/11 07:36:39;;;;;;;15.80;6.77;;;;;;;;;;4871820;29;20208;-81
2022/03/11 07:39:07;;;;;;;22.83;8.50;;;-3.20;77.10;;;;;;4867969;29;20203;-81
2022/03/11 07:41:34;;;;;;;15.43;6.93;;;-3.20;73.60;;;;;;4869213;29;20637;-81
2022/03/11 07:44:00;;;;;;;40.13;15.30;;;;;;;;;;4869305;29;20196;-81
2022/03/11 07:46:27;;;;;;;23.30;8.73;;;;;;;;;;4869938;29;20253;-81
2022/03/11 07:48:54;;;;;;;13.23;6.33;;;-3.10;65.70;;;;;;4866869;29;20217;-81
2022/03/11 07:51:20;;;;;;;11.70;5.57;;;;;;;;;;4864325;29;20273;-81
2022/03/11 07:53:46;;;;;;;15.97;3.40;;;;;;;;;;4862650;29;20761;-82
2022/03/11 07:56:13;;;;;;;9.97;4.13;;;;;;;;;;4864178;29;20628;-80
2022/03/11 07:58:41;;;;;;;29.63;10.60;;;;;;;;;;4864506;29;20244;-81
2022/03/11 08:01:11;;;;;;;18.17;6.57;;;-2.80;64.20;;;;;;4863871;29;20192;-81
2022/03/11 08:03:38;;;;;;;14.50;6.33;;;-2.70;64.60;;;;;;4865355;29;20191;-81
2022/03/11 08:06:05;;;;;;;10.67;5.00;;;-2.70;63.90;;;;;;4862691;29;20279;-81
2022/03/11 08:08:32;;;;;;;8.87;5.00;;;-2.60;64.00;;;;;;4862780;29;20202;-81
2022/03/11 08:10:58;;;;;;;14.77;4.87;;;;;;;;;;4863255;29;20194;-81
2022/03/11 08:13:24;;;;;;;7.93;4.63;;;-2.50;63.90;;;;;;4862546;29;20195;-81
2022/03/11 08:15:51;;;;;;;20.20;7.70;;;;;;;;;;4862257;29;20198;-81
2022/03/11 08:18:17;;;;;;;18.30;6.40;;;;;;;;;;4863259;29;20200;-82
2022/03/11 08:20:43;;;;;;;12.77;5.80;;;;;;;;;;4846783;29;20287;-81
2022/03/11 08:23:09;;;;;;;8.53;4.70;;;;;;;;;;4861557;29;20218;-80
2022/03/11 08:25:36;;;;;;;22.77;9.40;;;-2.20;59.10;;;;;;4863218;29;20214;-81
2022/03/11 08:28:04;;;;;;;18.27;5.67;;;-2.20;59.20;;;;;;4861896;29;20534;-81
2022/03/11 08:30:31;;;;;;;15.33;6.30;;;-2.20;57.30;;;;;;4870049;29;20645;-81
2022/03/11 08:32:57;;;;;;;14.10;6.17;;;-2.10;57.40;;;;;;4870356;29;20363;-82
2022/03/11 08:35:24;;;;;;;10.07;5.87;;;-2.10;56.90;;;;;;4870411;29;20179;-81
2022/03/11 08:37:51;;;;;;;16.97;7.10;;;-1.90;56.40;;;;;;4869885;29;20254;-81
2022/03/11 08:40:17;;;;;;;17.23;6.33;;;;;;;;;;4866276;29;20272;-81
2022/03/11 08:42:44;;;;;;;6.60;3.37;;;;;;;;;;4862506;29;20671;-82
2022/03/11 08:45:10;;;;;;;7.70;4.03;;;-2.10;58.40;;;;;;4860942;29;20184;-82
2022/03/11 08:47:37;;;;;;;12.37;6.07;;;;;;;;;;4862483;29;20190;-83
2022/03/11 08:50:03;;;;;;;22.13;6.23;;;-1.70;55.70;;;;;;4862275;29;20192;-82
2022/03/11 08:52:30;;;;;;;11.90;4.87;;;-1.70;54.80;;;;;;4861201;29;20202;-81
2022/03/11 08:54:56;;;;;;;18.27;6.30;;;;;;;;;;4859903;29;20267;-82
2022/03/11 08:57:23;;;;;;;11.90;5.23;;;;;;;;;;4853935;29;20200;-82
2022/03/11 08:59:49;;;;;;;15.27;6.30;;;;;;;;;;4867614;29;20243;-82
2022/03/11 09:02:15;;;;;;;6.90;4.20;;;;;;;;;;4879497;29;20194;-81
2022/03/11 09:04:41;;;;;;;8.93;4.00;;;;;;;;;;4879556;29;20222;-81
2022/03/11 09:07:07;;;;;;;12.07;4.93;;;;;;;;;;4888759;29;20231;-83
2022/03/11 09:09:34;;;;;;;15.00;6.50;;;;;;;;;;4891123;29;20194;-83
2022/03/11 09:12:00;;;;;;;6.93;4.47;;;;;;;;;;4878801;29;20197;-82
2022/03/11 09:14:26;;;;;;;9.13;4.70;;;;;;;;;;4852857;29;20551;-81
2022/03/11 09:16:52;;;;;;;9.03;4.57;;;;;;;;;;4868422;29;20193;-81
2022/03/11 09:19:18;;;;;;;9.00;3.83;;;;;;;;;;4868366;29;20197;-81
2022/03/11 09:21:44;;;;;;;9.47;4.43;;;;;;;;;;4871916;29;20196;-81
2022/03/11 09:24:10;;;;;;;15.33;6.10;;;;;;;;;;4853420;29;20214;-80
2022/03/11 09:26:36;;;;;;;8.80;4.53;;;;;;;;;;4864909;29;20561;-81
2022/03/11 09:29:03;;;;;;;5.37;2.93;;;;;;;;;;4871128;29;20567;-81
2022/03/11 09:31:29;;;;;;;12.33;4.90;;;;;;;;;;4867897;29;20276;-81
2022/03/11 09:33:55;;;;;;;10.50;4.73;;;;;;;;;;4872505;29;20178;-82
2022/03/11 09:36:21;;;;;;;6.30;3.17;;;;;;;;;;4870132;29;20194;-84
2022/03/11 09:38:47;;;;;;;7.20;4.07;;;;;;;;;;4870899;29;20224;-83
2022/03/11 09:41:13;;;;;;;7.73;3.73;;;;;;;;;;4869583;29;20196;-82
2022/03/11 09:43:40;;;;;;;5.07;2.97;;;;;;;;;;4871950;29;20208;-81
2022/03/11 09:46:06;;;;;;;7.80;3.13;;;;;;;;;;4855324;29;20221;-82
2022/03/11 09:48:34;;;;;;;10.17;5.80;;;-0.20;48.10;;;;;;4857753;29;20212;-83
2022/03/11 09:51:00;;;;;;;5.40;3.20;;;0.00;49.30;;;;;;4874610;29;20179;-82
2022/03/11 09:53:29;;;;;;;4.53;2.80;;;;;;;;;;4868495;29;20231;-82
2022/03/11 09:55:55;;;;;;;7.23;3.50;;;;;;;;;;4853693;29;20191;-82
2022/03/11 09:58:21;;;;;;;6.13;3.37;;;;;;;;;;4871683;29;20193;-82
2022/03/11 10:00:50;;;;;;;5.50;3.00;;;0.70;64.10;;;;;;4866070;29;20199;-83
2022/03/11 10:03:16;;;;;;;7.43;3.63;;;;;;;;;;4871556;29;20197;-82
2022/03/11 10:05:46;;;;;;;5.03;2.70;;;0.60;45.80;;;;;;4866350;29;20226;-82
2022/03/11 10:08:12;;;;;;;6.20;2.90;;;;;;;;;;4878414;29;20268;-82
2022/03/11 10:10:38;;;;;;;5.87;3.00;;;;;;;;;;4872180;29;20309;-82
2022/03/11 10:13:07;;;;;;;8.67;3.30;;;;;;;;;;4870799;29;20191;-83
2022/03/11 10:15:33;;;;;;;9.37;3.80;;;;;;;;;;4872885;29;20190;-83
2022/03/11 10:18:02;;;;;;;8.50;2.80;;;;;;;;;;4868207;29;20539;-82
2022/03/11 10:20:30;;;;;;;6.10;3.03;;;1.10;46.20;;;;;;4870294;29;20193;-81
2022/03/11 10:22:59;;;;;;;6.10;3.80;;;;;;;;;;4878462;29;20639;-81
2022/03/11 10:25:28;;;;;;;10.00;3.13;;;1.30;44.80;;;;;;4878458;29;20189;-82
2022/03/11 10:27:54;;;;;;;6.63;3.53;;;;;;;;;;4863741;29;20644;-82
2022/03/11 10:30:21;;;;;;;4.80;2.47;;;;;;;;;;4878584;29;20193;-82
2022/03/11 10:32:51;;;;;;;8.37;3.30;;;1.10;59.00;;;;;;4878886;29;20662;-82
2022/03/11 10:35:20;;;;;;;5.63;2.30;;;;;;;;;;4879776;29;20182;-82
2022/03/11 10:38:00;;;;;;;5.23;3.07;;;1.90;59.30;;;;;;4879288;29;20189;-82
2022/03/11 10:40:28;;;;;;;5.53;2.87;;;1.70;44.70;;;;;;4879665;29;20653;-83
2022/03/11 10:43:14;;;;;;;6.73;3.03;;;1.80;59.70;;;;;;4863173;29;20667;-83
2022/03/11 10:45:47;;;;;;;4.87;3.13;;;2.00;52.40;;;;;;4878488;29;20691;-83
2022/03/11 10:48:14;;;;;;;4.60;3.10;;;;;;;;;;4878487;29;20602;-83
2022/03/11 10:50:40;;;;;;;6.80;2.80;;;;;;;;;;4878476;29;20187;-83
2022/03/11 10:53:08;;;;;;;5.20;2.57;;;2.20;44.80;;;;;;4879197;29;20188;-82
2022/03/11 10:55:34;;;;;;;4.07;2.30;;;;;;;;;;4879467;29;20192;-82
2022/03/11 10:58:03;;;;;;;5.70;3.27;;;2.30;43.90;;;;;;4880016;29;20241;-82
2022/03/11 11:00:29;;;;;;;6.37;3.67;;;;;;;;;;4879860;29;20183;-82
2022/03/11 11:02:57;;;;;;;8.40;2.77;;;2.40;45.50;;;;;;4878166;29;20276;-82
2022/03/11 11:05:23;;;;;;;4.83;2.27;;;;;;;;;;4878212;29;20195;-83
2022/03/11 11:07:50;;;;;;;6.73;2.30;;;2.50;43.30;;;;;;4879854;29;20266;-81
2022/03/11 11:10:18;;;;;;;4.37;2.20;;;2.50;43.60;;;;;;4878319;29;20619;-82
2022/03/11 11:12:44;;;;;;;3.40;2.30;;;;;;;;;;4878093;29;20260;-82
2022/03/11 11:15:11;;;;;;;4.50;2.90;;;2.40;44.00;;;;;;4878539;29;20189;-82
2022/03/11 11:17:39;;;;;;;9.93;3.60;;;2.30;43.30;;;;;;4878413;29;20182;-82
2022/03/11 11:20:24;;;;;;;4.10;2.60;;;2.00;58.10;;;;;;4882916;29;20643;-82
2022/03/11 11:22:52;;;;;;;5.70;2.63;;;2.10;43.40;;;;;;4882693;29;20259;-82
2022/03/11 11:25:20;;;;;;;4.63;2.93;;;2.00;43.30;;;;;;4883858;29;20230;-83
2022/03/11 11:27:47;;;;;;;6.03;2.60;;;2.10;44.80;;;;;;4883439;29;20189;-83
2022/03/11 11:30:17;;;;;;;3.47;2.30;;;2.20;44.10;;;;;;4881957;29;20197;-82
2022/03/11 11:32:44;;;;;;;6.33;3.70;;;;;;;;;;4881934;29;20314;-83
2022/03/11 11:35:37;;;;;;;5.73;2.97;;;2.30;58.90;;;;;;4866764;29;20274;-82
2022/03/11 11:38:04;;;;;;;4.03;2.40;;;2.60;43.50;;;;;;4881913;29;20212;-83
2022/03/11 11:40:34;;;;;;;5.60;2.73;;;2.50;43.20;;;;;;4881521;29;20245;-81
2022/03/11 11:43:27;;;;;;;4.10;2.43;;;2.50;48.10;;;;;;4881731;29;20181;-82
2022/03/11 11:46:01;;;;;;;4.00;2.27;;;2.80;59.30;;;;;;4875474;29;20226;-83
2022/03/11 11:48:33;;;;;;;42.37;15.83;;;2.70;58.40;;;;;;4881722;29;20195;-83
2022/03/11 11:50:59;;;;;;;37.53;15.93;;;;;;;;;;4883353;29;20178;-82
2022/03/11 11:53:35;;;;;;;12.13;5.97;;;2.40;57.50;;;;;;4881388;29;20688;-83
2022/03/11 11:56:01;;;;;;;259.90;64.50;;;;;;;;;;4882102;29;20201;-83
2022/03/11 11:58:30;;;;;;;104.00;27.33;;;2.60;43.10;;;;;;4883035;29;20288;-83
2022/03/11 12:00:57;;;;;;;7.20;4.03;;;;;;;;;;4881913;29;20646;-84
2022/03/11 12:03:49;;;;;;;4.27;2.50;;;3.00;42.50;;;;;;4881246;29;20190;-84
2022/03/11 12:06:56;;;;;;;30.13;10.03;;;2.70;57.50;;;;;;4882390;29;20703;-83
2022/03/11 12:09:45;;;;;;;7.40;3.83;;;3.00;59.50;;;;;;4881216;29;20220;-82
2022/03/11 12:12:32;;;;;;;5.87;2.63;;;3.30;47.50;;;;;;4881591;29;20211;-83
2022/03/11 12:15:04;;;;;;;9.17;4.03;;;;;;;;;;4881508;29;20197;-83
2022/03/11 12:17:38;;;;;;;19.07;7.50;;;3.40;43.70;;;;;;4881206;29;20550;-82
2022/03/11 12:20:29;;;;;;;9.97;5.40;;;3.60;42.50;;;;;;4881344;29;20187;-82
2022/03/11 12:22:57;;;;;;;14.87;6.60;;;3.80;41.80;;;;;;4881369;29;20496;-82
2022/03/11 12:25:25;;;;;;;42.50;13.33;;;3.60;41.30;;;;;;4881057;29;20634;-82
2022/03/11 12:28:18;;;;;;;16.23;5.57;;;3.50;57.50;;;;;;4865033;29;20200;-82
2022/03/11 12:30:47;;;;;;;11.23;3.40;;;3.60;42.80;;;;;;4879880;29;20582;-85
2022/03/11 12:33:21;;;;;;;5.80;3.57;;;4.20;42.70;;;;;;4871473;29;20189;-83
2022/03/11 12:35:55;;;;;;;4.00;2.77;;;4.50;40.10;;;;;;4872884;29;20336;-82
2022/03/11 12:38:24;;;;;;;8.60;3.87;;;4.70;40.90;;;;;;4874294;29;20652;-84
2022/03/11 12:40:51;;;;;;;10.50;3.10;;;;;;;;;;4883225;29;20185;-86
2022/03/11 12:43:20;;;;;;;12.17;5.47;;;5.30;41.00;;;;;;4891433;29;20272;-85
2022/03/11 12:45:48;;;;;;;9.57;3.87;;;5.40;41.20;;;;;;4887651;29;20213;-84
2022/03/11 12:48:17;;;;;;;4.13;2.47;;;5.50;38.90;;;;;;4876125;29;20204;-84
2022/03/11 12:50:43;;;;;;;5.20;3.03;;;;;;;;;;4874742;29;20181;-81
2022/03/11 12:53:11;;;;;;;2.60;2.07;;;5.20;39.30;;;;;;4869622;29;20651;-82
2022/03/11 12:55:39;;;;;;;2.87;2.07;;;5.40;39.30;;;;;;4885430;29;20190;-83
2022/03/11 12:58:36;;;;;;;6.33;2.50;;;5.90;54.30;;;;;;4890652;29;20213;-82
2022/03/11 13:01:07;;;;;;;4.07;2.10;;;5.90;39.00;;;;;;4880296;29;20198;-83
2022/03/11 13:03:45;;;;;;;5.63;2.30;;;6.10;37.90;;;;;;4879488;29;20197;-82
2022/03/11 13:06:13;;;;;;;4.13;2.33;;;6.40;39.00;;;;;;4880041;29;20205;-82
2022/03/11 13:08:39;;;;;;;4.67;2.80;;;6.70;38.50;;;;;;4875648;29;20552;-82
2022/03/11 13:11:08;;;;;;;2.67;2.00;;;6.90;36.50;;;;;;4862676;29;20500;-82
2022/03/11 13:13:34;;;;;;;3.37;1.97;;;;;;;;;;4861521;29;20207;-83
2022/03/11 13:16:02;;;;;;;3.03;1.80;;;7.20;36.80;;;;;;4846213;29;20206;-82
2022/03/11 13:18:33;;;;;;;5.27;2.80;;;7.20;51.60;;;;;;4862079;29;20205;-83
2022/03/11 13:20:59;;;;;;;3.67;2.60;;;;;;;;;;4866552;29;20195;-82
2022/03/11 13:23:28;;;;;;;5.00;2.70;;;7.60;35.80;;;;;;4881403;29;20265;-83
2022/03/11 13:26:05;;;;;;;2.50;1.67;;;7.10;51.10;;;;;;4863253;29;20206;-83
2022/03/11 13:28:39;;;;;;;16.43;9.00;;;7.30;49.70;;;;;;4862505;29;20214;-83
2022/03/11 13:31:14;;;;;;;6.23;2.33;;;8.20;50.00;;;;;;4871081;29;20219;-83
2022/03/11 13:33:42;;;;;;;3.07;2.20;;;8.60;34.80;;;;;;4881532;29;20639;-83
2022/03/11 13:36:14;;;;;;;15.43;6.67;;;8.60;33.10;;;;;;4864869;29;20204;-84
2022/03/11 13:38:54;;;;;;;7.90;3.03;;;9.30;49.60;;;;;;4881260;29;20171;-83
2022/03/11 13:41:33;;;;;;;5.80;3.67;;;9.40;49.20;;;;;;4879480;29;20193;-83
2022/03/11 13:44:08;;;;;;;5.87;2.37;;;9.90;33.30;;;;;;4881596;29;20162;-82
2022/03/11 13:46:36;;;;;;;3.45;2.13;;;9.10;44.90;;;;;;4880699;29;20197;-83
2022/03/11 13:49:05;;;;;;;13.77;5.90;;;9.30;47.70;;;;;;4879813;29;20188;-83